Weather History for Ada, OK

Change the Weather History Date:

Saturday, January 18, 2014

  Actual Average Record
Temperature  
Mean Temperature 48 °F -  
Max Temperature 62 °F 51 °F 73 °F (1951)
Min Temperature 35 °F 29 °F -10 °F (1930)
Degree Days  
Heating Degree Days 16    
Moisture  
Dew Point 27 °F    
Average Humidity 43    
Maximum Humidity 57    
Minimum Humidity 31    
Precipitation  
Precipitation 0.00 in - - ()
Sea Level Pressure  
Sea Level Pressure 30.07 in    
Wind  
Wind Speed 11 mph (West)    
Max Wind Speed 18 mph    
Max Gust Speed 26 mph    
Visibility 10 miles    
Events      
Averages and records for this station are not official NWS values.
T = Trace of Precipitation, MM = Missing Value Source: NWS Daily Summary

Daily Weather History Graph

Daily Weather History Graph

Search for Another Location

Airport:

Trip Planner

Search our weather history database for the weather conditions in past years. The results will help you decide how hot, cold, wet, or windy it might be!

Date:

Astronomy

Jan. 18, 2014 Rise Set
Actual Time 7:32 AM CST 5:41 PM CST
Civil Twilight 7:05 AM CST 6:09 PM CST
Nautical Twilight 6:34 AM CST 6:39 PM CST
Astronomical Twilight 6:04 AM CST 7:10 PM CST
Moon 8:16 PM CST (1/18) 8:40 AM CST (1/18)
Length of Visible Light 11h 03m
Length of Day
10h 08m
Waning Gibbous, 94% of the Moon is Illuminated
Jan 18
Waning Gibbous
Jan 23
Last Quarter
Jan 30
New
Feb 6
First Quarter
Feb 14
Full

Hourly Weather History & Observations

Time (CST) Temp. Windchill Dew Point Humidity Pressure Visibility Wind Dir Wind Speed Gust Speed Precip Events Conditions
12:15 AM 35.6 °F 30.7 °F 21.2 °F 56% 30.11 in 10.0 mi South 5.8 mph - N/A   Clear
12:35 AM 37.4 °F 32.1 °F 21.2 °F 52% 30.10 in 10.0 mi South 6.9 mph - N/A   Clear
12:55 AM 37.4 °F 32.1 °F 21.2 °F 52% 30.10 in 10.0 mi South 6.9 mph - N/A   Clear
1:15 AM 37.4 °F 32.1 °F 21.2 °F 52% 30.10 in 10.0 mi SSW 6.9 mph - N/A   Clear
1:35 AM 41.0 °F 34.3 °F 21.2 °F 45% 30.09 in 10.0 mi SSW 11.5 mph - N/A   Clear
1:55 AM 41.0 °F 34.7 °F 21.2 °F 45% 30.09 in 10.0 mi SSW 10.4 mph - N/A   Clear
2:15 AM 41.0 °F 33.9 °F 21.2 °F 45% 30.09 in 10.0 mi SSW 12.7 mph - N/A   Clear
2:35 AM 41.0 °F 34.3 °F 21.2 °F 45% 30.09 in 10.0 mi SSW 11.5 mph - N/A   Clear
2:55 AM 41.0 °F 34.7 °F 21.2 °F 45% 30.09 in 10.0 mi SW 10.4 mph - N/A   Clear
3:15 AM 41.0 °F 34.3 °F 21.2 °F 45% 30.08 in 10.0 mi SW 11.5 mph 16.1 mph N/A   Clear
3:35 AM 41.0 °F 33.9 °F 21.2 °F 45% 30.07 in 10.0 mi SW 12.7 mph 18.4 mph N/A   Clear
3:55 AM 41.0 °F 33.5 °F 21.2 °F 45% 30.07 in 10.0 mi SW 13.8 mph 17.3 mph N/A   Clear
4:15 AM 41.0 °F 33.9 °F 21.2 °F 45% 30.07 in 10.0 mi SW 12.7 mph 19.6 mph N/A   Clear
4:35 AM 41.0 °F 33.9 °F 21.2 °F 45% 30.06 in 10.0 mi SW 12.7 mph 19.6 mph N/A   Clear
4:55 AM 41.0 °F 33.9 °F 23.0 °F 49% 30.06 in 10.0 mi WSW 12.7 mph 18.4 mph N/A   Clear
5:15 AM 41.0 °F 34.3 °F 23.0 °F 49% 30.05 in 10.0 mi WSW 11.5 mph - N/A   Clear
5:35 AM 41.0 °F 33.5 °F 23.0 °F 49% 30.05 in 10.0 mi WSW 13.8 mph 21.9 mph N/A   Clear
5:55 AM 41.0 °F 33.5 °F 23.0 °F 49% 30.04 in 10.0 mi WSW 13.8 mph 20.7 mph N/A   Clear
6:15 AM 41.0 °F 33.9 °F 23.0 °F 49% 30.04 in 10.0 mi WSW 12.7 mph 20.7 mph N/A   Clear
6:35 AM 41.0 °F 33.1 °F 23.0 °F 49% 30.04 in 10.0 mi WSW 15.0 mph 20.7 mph N/A   Clear
6:55 AM 41.0 °F 32.8 °F 23.0 °F 49% 30.03 in 10.0 mi WSW 16.1 mph 24.2 mph N/A   Clear
7:15 AM 41.0 °F 32.8 °F 23.0 °F 49% 30.03 in 10.0 mi WSW 16.1 mph 24.2 mph N/A   Clear
7:35 AM 41.0 °F 32.5 °F 23.0 °F 49% 30.03 in 10.0 mi WSW 17.3 mph 26.5 mph N/A   Clear
7:55 AM 39.2 °F 30.5 °F 23.0 °F 52% 30.03 in 10.0 mi WSW 16.1 mph 20.7 mph N/A   Clear
8:15 AM 41.0 °F 33.1 °F 24.8 °F 53% 30.03 in 10.0 mi WSW 15.0 mph 26.5 mph N/A   Clear
8:35 AM 41.0 °F 32.8 °F 24.8 °F 53% 30.03 in 10.0 mi WSW 16.1 mph 25.3 mph N/A   Clear
8:55 AM 42.8 °F 34.8 °F 24.8 °F 49% 30.04 in 10.0 mi WSW 17.3 mph 25.3 mph N/A   Clear
9:15 AM 44.6 °F 37.8 °F 26.6 °F 49% 30.05 in 10.0 mi WSW 15.0 mph 21.9 mph N/A   Clear
9:35 AM 46.4 °F 41.1 °F 26.6 °F 46% 30.05 in 10.0 mi WSW 11.5 mph 21.9 mph N/A   Clear
9:55 AM 48.2 °F - 28.4 °F 46% 30.05 in 10.0 mi WSW 11.5 mph 19.6 mph N/A   Clear
10:15 AM 50.0 °F - 28.4 °F 43% 30.05 in 10.0 mi West 17.3 mph 24.2 mph N/A   Clear
10:35 AM 51.8 °F - 28.4 °F 41% 30.06 in 10.0 mi West 12.7 mph 21.9 mph N/A   Clear
10:55 AM 53.6 °F - 30.2 °F 41% 30.05 in 10.0 mi West 17.3 mph 20.7 mph N/A   Clear
11:15 AM 55.4 °F - 30.2 °F 38% 30.05 in 10.0 mi West 16.1 mph 23.0 mph N/A   Clear
11:35 AM 55.4 °F - 30.2 °F 38% 30.04 in 10.0 mi West 18.4 mph 21.9 mph N/A   Clear
11:55 AM 55.4 °F - 30.2 °F 38% 30.03 in 10.0 mi West 15.0 mph 18.4 mph N/A   Clear
12:15 PM 57.2 °F - 30.2 °F 36% 30.03 in 10.0 mi West 12.7 mph 19.6 mph N/A   Clear
12:35 PM 59.0 °F - 30.2 °F 34% 30.02 in 10.0 mi West 15.0 mph 20.7 mph N/A   Clear
12:55 PM 59.0 °F - 30.2 °F 34% 30.00 in 10.0 mi West 15.0 mph 20.7 mph N/A   Clear
1:15 PM 60.8 °F - 32.0 °F 34% 29.98 in 10.0 mi West 11.5 mph 18.4 mph N/A   Clear
1:35 PM 60.8 °F - 32.0 °F 34% 29.97 in 10.0 mi WNW 11.5 mph - N/A   Clear
1:55 PM 62.6 °F - 32.0 °F 32% 29.97 in 10.0 mi WNW 13.8 mph 18.4 mph N/A   Clear
2:15 PM 62.6 °F - 32.0 °F 32% 29.97 in 10.0 mi WNW 15.0 mph 23.0 mph N/A   Clear
2:35 PM 62.6 °F - 32.0 °F 32% 29.97 in 10.0 mi NW 11.5 mph 18.4 mph N/A   Clear
2:55 PM 62.6 °F - 32.0 °F 32% 29.98 in 10.0 mi NW 13.8 mph 20.7 mph N/A   Clear
3:15 PM 60.8 °F - 32.0 °F 34% 29.98 in 10.0 mi NW 16.1 mph 21.9 mph N/A   Clear
3:35 PM 62.6 °F - 32.0 °F 32% 29.99 in 10.0 mi NW 12.7 mph 21.9 mph N/A   Clear
3:55 PM 60.8 °F - 32.0 °F 34% 30.00 in 10.0 mi NW 11.5 mph 21.9 mph N/A   Clear
4:15 PM 60.8 °F - 32.0 °F 34% 30.00 in 10.0 mi NW 15.0 mph 20.7 mph N/A   Clear
4:35 PM 60.8 °F - 30.2 °F 31% 30.02 in 10.0 mi NW 12.7 mph 19.6 mph N/A   Clear
4:55 PM 59.0 °F - 32.0 °F 36% 30.03 in 10.0 mi NW 10.4 mph 19.6 mph N/A   Clear
5:15 PM 59.0 °F - 30.2 °F 34% 30.04 in 10.0 mi NNW 11.5 mph 23.0 mph N/A   Clear
5:35 PM 55.4 °F - 30.2 °F 38% 30.05 in 10.0 mi NNW 9.2 mph 16.1 mph N/A   Clear
5:55 PM 55.4 °F - 30.2 °F 38% 30.06 in 10.0 mi NW 6.9 mph 16.1 mph N/A   Clear
6:15 PM 53.6 °F - 30.2 °F 41% 30.07 in 10.0 mi NW 8.1 mph - N/A   Clear
6:35 PM 53.6 °F - 30.2 °F 41% 30.07 in 10.0 mi NW 9.2 mph - N/A   Clear
6:55 PM 53.6 °F - 28.4 °F 38% 30.09 in 10.0 mi NNW 9.2 mph 18.4 mph N/A   Clear
7:15 PM 51.8 °F - 28.4 °F 41% 30.10 in 10.0 mi NNW 8.1 mph - N/A   Clear
7:35 PM 51.8 °F - 28.4 °F 41% 30.11 in 10.0 mi NNW 8.1 mph - N/A   Clear
7:55 PM 50.0 °F - 28.4 °F 43% 30.12 in 10.0 mi NNW 6.9 mph - N/A   Clear
8:15 PM 50.0 °F - 26.6 °F 40% 30.12 in 10.0 mi NNW 8.1 mph - N/A   Clear
8:35 PM 50.0 °F - 26.6 °F 40% 30.13 in 10.0 mi NNW 8.1 mph - N/A   Clear
8:55 PM 46.4 °F 42.4 °F 26.6 °F 46% 30.14 in 10.0 mi NNW 8.1 mph - N/A   Clear
9:15 PM 46.4 °F 41.5 °F 26.6 °F 46% 30.15 in 10.0 mi NNW 10.4 mph - N/A   Clear
9:35 PM 46.4 °F 43.5 °F 26.6 °F 46% 30.16 in 10.0 mi NNW 5.8 mph - N/A   Clear
9:55 PM 44.6 °F 42.2 °F 26.6 °F 49% 30.17 in 10.0 mi NW 4.6 mph - N/A   Clear
10:15 PM 44.6 °F 41.4 °F 26.6 °F 49% 30.18 in 10.0 mi NW 5.8 mph - N/A   Clear
10:35 PM 44.6 °F 39.7 °F 26.6 °F 49% 30.18 in 10.0 mi NNW 9.2 mph - N/A   Clear
10:55 PM 42.8 °F 38.6 °F 26.6 °F 53% 30.19 in 10.0 mi NNW 6.9 mph - N/A   Clear
11:15 PM 42.8 °F 38.6 °F 26.6 °F 53% 30.19 in 10.0 mi NNW 6.9 mph - N/A   Clear
11:35 PM 42.8 °F 39.3 °F 26.6 °F 53% 30.19 in 10.0 mi NW 5.8 mph - N/A   Clear
11:55 PM 41.0 °F 37.1 °F 26.6 °F 57% 30.19 in 10.0 mi NW 5.8 mph - N/A   Clear